createdAt,value
2018-12-23T00:00:00.571Z,3.00
2018-12-23T00:00:35.371Z,3.10
2018-12-23T00:01:09.975Z,3.10
2018-12-23T00:01:44.311Z,3.10
2018-12-23T00:02:19.102Z,3.00
2018-12-23T00:02:53.582Z,3.10
2018-12-23T00:03:28.210Z,3.10
2018-12-23T00:04:02.771Z,3.10
2018-12-23T00:04:37.161Z,3.00
2018-12-23T00:05:11.894Z,3.00
2018-12-23T00:05:46.775Z,3.00
2018-12-23T00:06:21.270Z,3.00
2018-12-23T00:06:55.561Z,3.00
2018-12-23T00:07:30.064Z,3.00
2018-12-23T00:08:04.731Z,3.00
2018-12-23T00:08:39.373Z,3.00
2018-12-23T00:09:14.021Z,3.10
2018-12-23T00:09:48.481Z,3.00
2018-12-23T00:10:23.261Z,3.00
2018-12-23T00:10:57.749Z,3.00
2018-12-23T00:11:32.311Z,3.00
2018-12-23T00:12:06.593Z,3.00
2018-12-23T00:12:41.783Z,3.00
2018-12-23T00:13:16.273Z,3.00
2018-12-23T00:13:50.921Z,3.00
2018-12-23T00:14:25.661Z,3.00
2018-12-23T00:14:59.881Z,3.00
2018-12-23T00:15:34.561Z,3.00
2018-12-23T00:16:08.941Z,3.00
2018-12-23T00:16:43.470Z,3.00
2018-12-23T00:17:17.981Z,3.00
2018-12-23T00:17:52.232Z,3.00
2018-12-23T00:18:26.895Z,3.00
2018-12-23T00:19:01.512Z,3.00
2018-12-23T00:19:36.052Z,3.00
2018-12-23T00:20:10.930Z,3.00
2018-12-23T00:20:45.631Z,3.00
2018-12-23T00:21:20.141Z,3.00
2018-12-23T00:21:54.810Z,3.00
2018-12-23T00:22:29.381Z,3.10
2018-12-23T00:23:03.657Z,3.10
2018-12-23T00:23:38.079Z,3.00
2018-12-23T00:24:12.561Z,3.10
2018-12-23T00:24:46.960Z,3.10
2018-12-23T00:25:22.002Z,3.10
2018-12-23T00:26:59.600Z,3.10
2018-12-23T00:27:34.253Z,3.10
2018-12-23T00:28:08.912Z,3.10
2018-12-23T00:28:43.553Z,3.10
2018-12-23T00:29:18.064Z,3.10
2018-12-23T00:29:52.689Z,3.10
2018-12-23T00:30:27.200Z,3.10
2018-12-23T00:31:01.976Z,3.10
2018-12-23T00:31:36.507Z,3.10
2018-12-23T00:32:11.134Z,3.10
2018-12-23T00:32:45.747Z,3.10
2018-12-23T00:33:20.350Z,3.10
2018-12-23T00:33:54.871Z,3.10
2018-12-23T00:34:29.507Z,3.10
2018-12-23T00:35:04.162Z,3.10
2018-12-23T00:35:38.615Z,3.10
2018-12-23T00:36:13.406Z,3.10
2018-12-23T00:36:48.020Z,3.10
2018-12-23T00:37:22.602Z,3.10
2018-12-23T00:37:57.216Z,3.10
2018-12-23T00:38:31.851Z,3.10
2018-12-23T00:39:07.831Z,3.10
2018-12-23T00:39:42.391Z,3.10
2018-12-23T00:40:16.944Z,3.10
2018-12-23T00:40:51.611Z,3.10
2018-12-23T00:41:26.120Z,3.10
2018-12-23T00:42:00.563Z,3.10
2018-12-23T00:42:35.240Z,3.10
2018-12-23T00:43:09.763Z,3.10
2018-12-23T00:43:44.405Z,3.00
2018-12-23T00:44:19.124Z,3.00
2018-12-23T00:44:53.912Z,3.00
2018-12-23T00:45:28.772Z,3.00
2018-12-23T00:46:03.430Z,3.00
2018-12-23T00:46:37.950Z,3.00
2018-12-23T00:47:12.622Z,3.00
2018-12-23T00:47:47.564Z,3.00
2018-12-23T00:48:22.161Z,3.00
2018-12-23T00:48:57.281Z,3.00
2018-12-23T00:49:31.917Z,3.00
2018-12-23T00:50:07.540Z,3.00
2018-12-23T00:50:42.138Z,3.00
2018-12-23T00:51:16.867Z,3.00
2018-12-23T00:51:51.357Z,3.00
2018-12-23T00:52:25.875Z,3.00
2018-12-23T00:53:00.477Z,3.00
2018-12-23T00:53:35.108Z,3.00
2018-12-23T00:54:09.718Z,3.00
2018-12-23T00:54:44.669Z,3.00
2018-12-23T00:55:19.301Z,2.90
2018-12-23T00:55:53.979Z,2.90
2018-12-23T00:56:28.497Z,2.90
2018-12-23T00:57:03.171Z,2.90
2018-12-23T00:57:37.675Z,2.90
2018-12-23T00:58:12.285Z,3.00
2018-12-23T00:58:46.986Z,3.00
2018-12-23T00:59:21.506Z,3.00
2018-12-23T00:59:55.977Z,2.90
2018-12-23T01:00:30.722Z,3.00
2018-12-23T01:01:05.242Z,2.90
2018-12-23T01:01:39.779Z,3.00
2018-12-23T01:02:14.302Z,3.00
2018-12-23T01:02:48.964Z,2.90
2018-12-23T01:03:23.707Z,3.00
2018-12-23T01:03:58.120Z,3.00
2018-12-23T01:04:32.643Z,3.00
2018-12-23T01:05:07.854Z,3.00
2018-12-23T01:05:42.332Z,3.00
2018-12-23T01:06:16.821Z,3.00
2018-12-23T01:06:51.503Z,3.00
2018-12-23T01:07:25.973Z,3.00
2018-12-23T01:08:00.452Z,3.00
2018-12-23T01:08:35.353Z,3.00
2018-12-23T01:09:10.182Z,3.00
2018-12-23T01:09:44.765Z,3.00
2018-12-23T01:10:19.394Z,3.00
2018-12-23T01:10:54.077Z,3.00
2018-12-23T01:11:28.487Z,3.00
2018-12-23T01:12:03.131Z,3.00
2018-12-23T01:13:41.061Z,3.00
2018-12-23T01:14:15.646Z,3.00
2018-12-23T01:14:50.310Z,3.00
2018-12-23T01:15:24.841Z,3.00
2018-12-23T01:15:59.462Z,3.00
2018-12-23T01:16:33.943Z,3.00
2018-12-23T01:17:08.605Z,3.00
2018-12-23T01:17:43.265Z,3.00
2018-12-23T01:18:17.894Z,3.00
2018-12-23T01:18:52.421Z,3.00
2018-12-23T01:19:27.043Z,3.00
2018-12-23T01:20:01.694Z,3.00
2018-12-23T01:20:36.430Z,3.00
2018-12-23T01:21:10.914Z,3.00
2018-12-23T01:21:45.265Z,3.00
2018-12-23T01:22:19.944Z,3.00
2018-12-23T01:22:54.800Z,3.00
2018-12-23T01:23:29.308Z,3.00
2018-12-23T01:24:03.954Z,3.00
2018-12-23T01:24:38.523Z,3.00
2018-12-23T01:25:13.128Z,3.00
2018-12-23T01:25:47.794Z,3.00
2018-12-23T01:26:22.327Z,3.00
2018-12-23T01:26:56.753Z,3.00
2018-12-23T01:27:31.596Z,3.00
2018-12-23T01:28:06.195Z,3.00
2018-12-23T01:28:40.854Z,3.00
2018-12-23T01:29:15.591Z,3.00
2018-12-23T01:29:50.095Z,3.00
2018-12-23T01:30:24.640Z,3.00
2018-12-23T01:30:59.087Z,3.00
2018-12-23T01:31:33.762Z,3.00
2018-12-23T01:32:09.816Z,3.00
2018-12-23T01:32:44.698Z,3.00
2018-12-23T01:33:19.424Z,3.00
2018-12-23T01:33:53.966Z,3.00
2018-12-23T01:34:36.863Z,3.00
2018-12-23T01:35:05.555Z,3.00
2018-12-23T01:35:40.236Z,3.00
2018-12-23T01:36:14.800Z,3.00
2018-12-23T01:36:49.530Z,3.00
2018-12-23T01:37:24.113Z,3.00
2018-12-23T01:37:58.872Z,3.00
2018-12-23T01:38:33.611Z,3.00
2018-12-23T01:39:08.177Z,3.00
2018-12-23T01:39:42.747Z,3.00
2018-12-23T01:40:17.364Z,3.00
2018-12-23T01:40:52.263Z,3.00
2018-12-23T01:41:26.633Z,3.00
2018-12-23T01:42:01.313Z,3.00
2018-12-23T01:42:35.928Z,3.00
2018-12-23T01:43:10.563Z,3.00
2018-12-23T01:43:45.172Z,3.00
2018-12-23T01:44:19.793Z,3.00
2018-12-23T01:45:57.734Z,3.00
2018-12-23T01:46:32.334Z,3.00
2018-12-23T01:47:06.909Z,3.00
2018-12-23T01:47:41.641Z,3.00
2018-12-23T01:48:16.539Z,3.00
2018-12-23T01:48:51.252Z,3.00
2018-12-23T01:49:25.758Z,3.00
2018-12-23T01:50:00.176Z,3.00
2018-12-23T01:50:34.815Z,3.00
2018-12-23T01:51:09.566Z,3.00
2018-12-23T01:51:44.164Z,3.00
2018-12-23T01:52:18.803Z,3.00
2018-12-23T01:52:53.417Z,3.00
2018-12-23T01:53:27.852Z,3.00
2018-12-23T01:54:02.491Z,3.00
2018-12-23T01:54:37.157Z,3.00
2018-12-23T01:55:11.793Z,3.00
2018-12-23T01:55:46.391Z,3.00
2018-12-23T01:56:21.271Z,3.00
2018-12-23T01:56:55.909Z,3.00
2018-12-23T01:57:30.429Z,3.00
2018-12-23T01:58:05.031Z,3.00
2018-12-23T01:58:39.679Z,3.00
2018-12-23T01:59:14.304Z,3.00
2018-12-23T01:59:48.977Z,3.00
2018-12-23T02:00:23.800Z,3.00
2018-12-23T02:00:58.576Z,3.00
2018-12-23T02:01:33.086Z,3.00
2018-12-23T02:02:07.452Z,3.00
2018-12-23T02:02:41.978Z,3.00
2018-12-23T02:03:16.743Z,3.00
2018-12-23T02:03:51.366Z,3.00
2018-12-23T02:04:25.980Z,3.00
2018-12-23T02:05:00.617Z,3.00
2018-12-23T02:05:35.098Z,3.00
2018-12-23T02:06:09.786Z,3.00
2018-12-23T02:06:44.498Z,3.00
2018-12-23T02:07:19.097Z,3.00
2018-12-23T02:07:53.609Z,3.00
2018-12-23T02:08:28.271Z,3.00
2018-12-23T02:09:03.283Z,3.00
2018-12-23T02:09:37.791Z,3.00
2018-12-23T02:10:12.616Z,3.00
2018-12-23T02:10:47.140Z,3.00
2018-12-23T02:11:21.827Z,2.90
2018-12-23T02:11:56.423Z,3.00
2018-12-23T02:12:31.036Z,3.00
2018-12-23T02:13:05.636Z,2.90
2018-12-23T02:13:40.117Z,2.90
2018-12-23T02:14:14.764Z,2.90
2018-12-23T02:14:49.454Z,3.00
2018-12-23T02:15:23.937Z,2.90
2018-12-23T02:15:58.485Z,2.90
2018-12-23T02:16:32.823Z,2.90
2018-12-23T02:17:07.530Z,2.90
2018-12-23T02:17:42.458Z,3.00
2018-12-23T02:18:17.262Z,3.00
2018-12-23T02:18:51.776Z,2.90
2018-12-23T02:19:26.350Z,2.90
2018-12-23T02:20:01.242Z,2.90
2018-12-23T02:20:35.852Z,2.90
2018-12-23T02:21:10.532Z,2.90
2018-12-23T02:21:45.111Z,2.90
2018-12-23T02:22:19.950Z,2.90
2018-12-23T02:22:54.673Z,2.90
2018-12-23T02:23:29.259Z,2.90
2018-12-23T02:24:03.892Z,3.00
2018-12-23T02:24:39.334Z,3.00
2018-12-23T02:25:13.846Z,2.90
2018-12-23T02:25:48.536Z,2.90
2018-12-23T02:26:23.112Z,2.90
2018-12-23T02:26:57.745Z,3.00
2018-12-23T02:27:32.455Z,2.90
2018-12-23T02:28:06.973Z,2.90
2018-12-23T02:28:41.806Z,2.90
2018-12-23T02:29:16.485Z,3.00
2018-12-23T02:29:51.155Z,2.90
2018-12-23T02:30:25.756Z,3.00
2018-12-23T02:31:00.791Z,2.90
2018-12-23T02:31:35.461Z,2.90
2018-12-23T02:32:10.001Z,3.00
2018-12-23T02:32:44.743Z,2.90
2018-12-23T02:33:19.404Z,2.90
2018-12-23T02:33:53.940Z,2.90
2018-12-23T02:34:28.613Z,3.00
2018-12-23T02:35:03.590Z,2.90
2018-12-23T02:35:38.255Z,2.90
2018-12-23T02:36:12.842Z,2.90
2018-12-23T02:36:47.486Z,2.90
2018-12-23T02:37:22.378Z,3.00
2018-12-23T02:37:57.104Z,3.00
2018-12-23T02:38:31.606Z,3.00
2018-12-23T02:39:08.550Z,2.90
2018-12-23T02:39:43.104Z,2.90
2018-12-23T02:40:17.679Z,2.90
2018-12-23T02:40:52.265Z,2.90
2018-12-23T02:41:31.645Z,3.00
2018-12-23T02:42:03.473Z,2.90
2018-12-23T02:42:38.085Z,2.90
2018-12-23T02:43:12.585Z,2.90
2018-12-23T02:43:47.201Z,2.90
2018-12-23T02:44:21.817Z,2.90
2018-12-23T02:44:56.454Z,3.00
2018-12-23T02:45:31.036Z,2.90
2018-12-23T02:46:05.748Z,2.90
2018-12-23T02:46:40.179Z,2.90
2018-12-23T02:47:15.104Z,2.90
2018-12-23T02:47:49.864Z,2.90
2018-12-23T02:48:24.725Z,2.90
2018-12-23T02:48:59.359Z,2.90
2018-12-23T02:49:34.122Z,2.90
2018-12-23T02:50:08.713Z,2.90
2018-12-23T02:50:43.227Z,2.90
2018-12-23T02:51:17.980Z,2.90
2018-12-23T02:51:52.605Z,2.90
2018-12-23T02:52:27.197Z,2.90
2018-12-23T02:53:01.814Z,2.90
2018-12-23T02:53:36.372Z,2.90
2018-12-23T02:54:11.432Z,2.90
2018-12-23T02:54:45.850Z,2.90
2018-12-23T02:55:20.626Z,2.90
2018-12-23T02:55:55.345Z,2.90
2018-12-23T02:56:30.018Z,2.90
2018-12-23T02:57:05.175Z,2.90
2018-12-23T02:57:39.921Z,2.90
2018-12-23T02:58:14.538Z,2.90
2018-12-23T02:58:49.135Z,2.90
2018-12-23T02:59:23.623Z,2.90
2018-12-23T02:59:58.267Z,2.90
2018-12-23T03:00:32.885Z,2.90
2018-12-23T03:01:07.547Z,2.90
2018-12-23T03:01:42.360Z,2.90
2018-12-23T03:02:17.001Z,2.90
2018-12-23T03:02:51.680Z,2.90
2018-12-23T03:03:26.319Z,2.90
2018-12-23T03:04:01.282Z,2.90
2018-12-23T03:04:36.052Z,2.90
2018-12-23T03:05:10.743Z,2.90
2018-12-23T03:05:45.417Z,2.90
2018-12-23T03:06:20.152Z,2.80
2018-12-23T03:06:54.865Z,2.80
2018-12-23T03:07:29.473Z,2.80
2018-12-23T03:08:04.204Z,2.90
2018-12-23T03:08:38.673Z,2.80
2018-12-23T03:09:13.367Z,2.90
2018-12-23T03:09:48.191Z,2.90
2018-12-23T03:10:22.882Z,2.90
2018-12-23T03:10:57.397Z,2.80
2018-12-23T03:11:31.916Z,2.90
2018-12-23T03:12:06.535Z,2.90
2018-12-23T03:12:41.166Z,2.80
2018-12-23T03:13:15.832Z,2.80
2018-12-23T03:13:50.694Z,2.90
2018-12-23T03:14:25.474Z,2.80
2018-12-23T03:15:00.123Z,2.90
2018-12-23T03:15:34.768Z,2.90
2018-12-23T03:16:09.408Z,2.80
2018-12-23T03:16:43.950Z,2.80
2018-12-23T03:17:18.633Z,2.90
2018-12-23T03:17:53.340Z,2.90
2018-12-23T03:18:27.896Z,2.80
2018-12-23T03:19:02.685Z,2.90
2018-12-23T03:19:37.430Z,2.80
2018-12-23T03:20:12.184Z,2.80
2018-12-23T03:20:46.434Z,2.80
2018-12-23T03:21:20.970Z,2.80
2018-12-23T03:21:55.660Z,2.90
2018-12-23T03:22:30.619Z,2.80
2018-12-23T03:23:05.431Z,2.80
2018-12-23T03:23:39.985Z,2.80
2018-12-23T03:24:14.630Z,2.90
2018-12-23T03:24:49.191Z,2.90
2018-12-23T03:25:23.810Z,2.90
2018-12-23T03:25:58.325Z,2.80
2018-12-23T03:26:33.156Z,2.80
2018-12-23T03:27:07.694Z,2.80
2018-12-23T03:27:42.261Z,2.80
2018-12-23T03:28:16.703Z,2.80
2018-12-23T03:28:51.613Z,2.80
2018-12-23T03:29:26.215Z,2.80
2018-12-23T03:30:01.083Z,2.80
2018-12-23T03:30:35.856Z,2.80
2018-12-23T03:31:10.357Z,2.80
2018-12-23T03:31:45.257Z,2.80
2018-12-23T03:32:19.752Z,2.80
2018-12-23T03:32:54.291Z,2.80
2018-12-23T03:33:28.947Z,2.80
2018-12-23T03:34:03.505Z,2.80
2018-12-23T03:34:38.154Z,2.80
2018-12-23T03:35:12.933Z,2.80
2018-12-23T03:35:47.564Z,2.80
2018-12-23T03:36:21.965Z,2.80
2018-12-23T03:36:56.574Z,2.80
2018-12-23T03:37:31.290Z,2.80
2018-12-23T03:38:05.990Z,2.80
2018-12-23T03:38:40.412Z,2.80
2018-12-23T03:39:15.717Z,2.80
2018-12-23T03:39:50.278Z,2.80
2018-12-23T03:40:25.120Z,2.80
2018-12-23T03:40:59.692Z,2.80
2018-12-23T03:41:34.575Z,2.80
2018-12-23T03:42:09.072Z,2.80
2018-12-23T03:42:43.576Z,2.80
2018-12-23T03:43:18.084Z,2.80
2018-12-23T03:43:52.795Z,2.80
2018-12-23T03:44:27.614Z,2.80
2018-12-23T03:45:02.264Z,2.80
2018-12-23T03:45:36.947Z,2.80
2018-12-23T03:46:11.641Z,2.80
2018-12-23T03:46:46.267Z,2.80
2018-12-23T03:47:20.917Z,2.80
2018-12-23T03:47:55.416Z,2.80
2018-12-23T03:48:30.041Z,2.80
2018-12-23T03:49:05.159Z,2.80
2018-12-23T03:49:39.739Z,2.80
2018-12-23T03:50:14.480Z,2.80
2018-12-23T03:50:49.171Z,2.80
2018-12-23T03:51:23.711Z,2.80
2018-12-23T03:51:58.407Z,2.80
2018-12-23T03:52:33.069Z,2.80
2018-12-23T03:53:07.599Z,2.80
2018-12-23T03:53:42.344Z,2.80
2018-12-23T03:54:16.950Z,2.80
2018-12-23T03:54:51.753Z,2.80
2018-12-23T03:55:26.397Z,2.80
2018-12-23T03:56:00.963Z,2.80
2018-12-23T03:56:35.598Z,2.80
2018-12-23T03:57:10.132Z,2.80
2018-12-23T03:57:44.821Z,2.80
2018-12-23T03:58:19.358Z,2.80
2018-12-23T03:58:53.880Z,2.80
2018-12-23T03:59:28.677Z,2.80
2018-12-23T04:00:03.396Z,2.80
2018-12-23T04:00:37.922Z,2.80
2018-12-23T04:01:12.482Z,2.80
2018-12-23T04:01:47.061Z,2.80
2018-12-23T04:02:21.733Z,2.80
2018-12-23T04:02:56.409Z,2.80
2018-12-23T04:03:30.945Z,2.80
2018-12-23T04:04:05.656Z,2.80
2018-12-23T04:04:40.684Z,2.80
2018-12-23T04:05:15.377Z,2.80
2018-12-23T04:05:49.988Z,2.80
2018-12-23T04:06:25.116Z,2.80
2018-12-23T04:06:59.919Z,2.80
2018-12-23T04:07:35.559Z,2.80
2018-12-23T04:08:10.084Z,2.80
2018-12-23T04:08:44.711Z,2.80
2018-12-23T04:09:19.411Z,2.80
2018-12-23T04:09:54.043Z,2.80
2018-12-23T04:10:28.673Z,2.80
2018-12-23T04:11:03.309Z,2.80
2018-12-23T04:11:38.092Z,2.80
2018-12-23T04:12:12.580Z,2.80
2018-12-23T04:12:47.352Z,2.80
2018-12-23T04:13:21.914Z,2.80
2018-12-23T04:13:56.586Z,2.80
2018-12-23T04:14:31.385Z,2.80
2018-12-23T04:15:06.315Z,2.80
2018-12-23T04:15:40.763Z,2.80
2018-12-23T04:16:15.428Z,2.80
2018-12-23T04:16:50.202Z,2.80
2018-12-23T04:17:25.075Z,2.80
2018-12-23T04:17:59.725Z,2.80
2018-12-23T04:18:34.346Z,2.80
2018-12-23T04:19:08.986Z,2.80
2018-12-23T04:19:43.505Z,2.80
2018-12-23T04:20:18.127Z,2.80
2018-12-23T04:20:52.698Z,2.80
2018-12-23T04:21:27.488Z,2.80
2018-12-23T04:22:02.300Z,2.80
2018-12-23T04:22:36.968Z,2.80
2018-12-23T04:23:11.536Z,2.80
2018-12-23T04:23:46.208Z,2.80
2018-12-23T04:24:20.979Z,2.80
2018-12-23T04:24:55.761Z,2.80
2018-12-23T04:25:30.410Z,2.80
2018-12-23T04:26:05.190Z,2.80
2018-12-23T04:26:39.760Z,2.80
2018-12-23T04:27:14.318Z,2.90
2018-12-23T04:27:48.913Z,2.80
2018-12-23T04:28:23.711Z,2.80
2018-12-23T04:28:58.240Z,2.80
2018-12-23T04:29:33.234Z,2.80
2018-12-23T04:30:07.879Z,2.80
2018-12-23T04:30:42.568Z,2.80
2018-12-23T04:31:17.337Z,2.80
2018-12-23T04:31:51.941Z,2.80
2018-12-23T04:32:26.688Z,2.80
2018-12-23T04:33:01.157Z,2.80
2018-12-23T04:33:36.159Z,2.80
2018-12-23T04:34:10.770Z,2.80
2018-12-23T04:34:45.479Z,2.80
2018-12-23T04:35:20.105Z,2.80
2018-12-23T04:35:54.787Z,2.80
2018-12-23T04:36:33.957Z,2.80
2018-12-23T04:37:05.833Z,2.80
2018-12-23T04:37:40.556Z,2.80
2018-12-23T04:38:15.134Z,2.80
2018-12-23T04:38:49.816Z,2.80
2018-12-23T04:39:24.412Z,2.80
2018-12-23T04:39:59.034Z,2.80
2018-12-23T04:40:33.683Z,2.80
2018-12-23T04:41:08.372Z,2.80
2018-12-23T04:41:43.024Z,2.80
2018-12-23T04:42:17.684Z,2.80
2018-12-23T04:42:52.325Z,2.80
2018-12-23T04:43:26.994Z,2.80
2018-12-23T04:44:01.483Z,2.80
2018-12-23T04:44:36.115Z,2.80
2018-12-23T04:45:10.652Z,2.80
2018-12-23T04:45:45.374Z,2.80
2018-12-23T04:46:20.267Z,2.80
2018-12-23T04:46:54.830Z,2.80
2018-12-23T04:47:29.492Z,2.80
2018-12-23T04:48:04.402Z,2.80
2018-12-23T04:48:38.966Z,2.80
2018-12-23T04:49:13.605Z,2.80
2018-12-23T04:49:48.362Z,2.80
2018-12-23T04:50:23.109Z,2.80
2018-12-23T04:50:57.758Z,2.80
2018-12-23T04:51:32.193Z,2.80
2018-12-23T04:52:07.159Z,2.80
2018-12-23T04:52:41.771Z,2.80
2018-12-23T04:53:16.360Z,2.80
2018-12-23T04:53:51.016Z,2.80
2018-12-23T04:54:25.555Z,2.80
2018-12-23T04:55:00.330Z,2.80
2018-12-23T04:55:34.856Z,2.80
2018-12-23T04:56:09.439Z,2.80
2018-12-23T04:56:43.999Z,2.80
2018-12-23T04:57:18.771Z,2.80
2018-12-23T04:57:53.343Z,2.80
2018-12-23T04:58:28.090Z,2.80
2018-12-23T04:59:02.525Z,2.80
2018-12-23T04:59:37.167Z,2.80
2018-12-23T05:00:11.925Z,2.80
2018-12-23T05:00:46.460Z,2.80
2018-12-23T05:01:21.504Z,2.80
2018-12-23T05:01:56.100Z,2.80
2018-12-23T05:02:30.738Z,2.80
2018-12-23T05:03:05.424Z,2.80
2018-12-23T05:03:42.817Z,2.80
2018-12-23T05:04:16.738Z,2.70
2018-12-23T05:04:51.402Z,2.80
2018-12-23T05:05:25.992Z,2.80
2018-12-23T05:06:00.607Z,2.70
2018-12-23T05:06:43.075Z,2.80
2018-12-23T05:07:11.847Z,2.80
2018-12-23T05:07:46.624Z,2.80
2018-12-23T05:08:21.544Z,2.80
2018-12-23T05:08:56.477Z,2.80
2018-12-23T05:09:31.440Z,2.70
2018-12-23T05:10:06.628Z,2.70
2018-12-23T05:10:41.471Z,2.70
2018-12-23T05:11:16.121Z,2.70
2018-12-23T05:11:50.668Z,2.70
2018-12-23T05:12:25.138Z,2.70
2018-12-23T05:12:59.651Z,2.70
2018-12-23T05:13:34.484Z,2.70
2018-12-23T05:14:09.184Z,2.70
2018-12-23T05:14:44.834Z,2.70
2018-12-23T05:15:19.605Z,2.70
2018-12-23T05:15:54.047Z,2.70
2018-12-23T05:16:28.736Z,2.70
2018-12-23T05:17:03.279Z,2.70
2018-12-23T05:17:37.781Z,2.70
2018-12-23T05:18:12.495Z,2.70
2018-12-23T05:18:47.486Z,2.60
2018-12-23T05:19:22.281Z,2.60
2018-12-23T05:19:56.929Z,2.60
2018-12-23T05:20:31.546Z,2.60
2018-12-23T05:21:06.222Z,2.60
2018-12-23T05:21:40.737Z,2.60
2018-12-23T05:22:15.262Z,2.60
2018-12-23T05:22:49.932Z,2.60
2018-12-23T05:23:27.534Z,2.60
2018-12-23T05:24:02.086Z,2.60
2018-12-23T05:24:36.825Z,2.60
2018-12-23T05:25:11.560Z,2.50
2018-12-23T05:25:46.230Z,2.60
2018-12-23T05:26:20.904Z,2.50
2018-12-23T05:26:55.482Z,2.50
2018-12-23T05:27:29.960Z,2.50
2018-12-23T05:28:04.551Z,2.50
2018-12-23T05:28:39.252Z,2.50
2018-12-23T05:29:13.899Z,2.50
2018-12-23T05:29:48.770Z,2.50
2018-12-23T05:30:23.404Z,2.50
2018-12-23T05:30:58.115Z,2.40
2018-12-23T05:31:32.682Z,2.50
2018-12-23T05:32:07.324Z,2.50
2018-12-23T05:32:41.934Z,2.50
2018-12-23T05:33:16.424Z,2.50
2018-12-23T05:33:51.029Z,2.50
2018-12-23T05:34:25.752Z,2.50
2018-12-23T05:35:00.383Z,2.50
2018-12-23T05:35:35.570Z,2.50
2018-12-23T05:36:10.195Z,2.50
2018-12-23T05:36:52.426Z,2.50
2018-12-23T05:37:21.739Z,2.50
2018-12-23T05:37:56.458Z,2.50
2018-12-23T05:38:31.301Z,2.50
2018-12-23T05:39:07.499Z,2.50
2018-12-23T05:39:42.110Z,2.50
2018-12-23T05:40:16.716Z,2.50
2018-12-23T05:40:51.565Z,2.50
2018-12-23T05:41:26.121Z,2.50
2018-12-23T05:42:00.693Z,2.50
2018-12-23T05:42:35.412Z,2.50
2018-12-23T05:43:10.192Z,2.50
2018-12-23T05:43:44.702Z,2.50
2018-12-23T05:44:19.912Z,2.50
2018-12-23T05:44:54.561Z,2.40
2018-12-23T05:45:29.415Z,2.40
2018-12-23T05:46:03.960Z,2.40
2018-12-23T05:46:38.659Z,2.50
2018-12-23T05:47:13.274Z,2.40
2018-12-23T05:47:47.924Z,2.50
2018-12-23T05:48:22.914Z,2.50
2018-12-23T05:48:57.591Z,2.50
2018-12-23T05:49:32.136Z,2.50
2018-12-23T05:50:06.891Z,2.50
2018-12-23T05:50:41.643Z,2.50
2018-12-23T05:51:16.245Z,2.40
2018-12-23T05:51:50.723Z,2.50
2018-12-23T05:52:25.401Z,2.50
2018-12-23T05:53:00.090Z,2.50
2018-12-23T05:53:34.950Z,2.50
2018-12-23T05:54:09.557Z,2.40
2018-12-23T05:54:44.448Z,2.50
2018-12-23T05:55:24.470Z,2.50
2018-12-23T05:55:57.659Z,2.40
2018-12-23T05:56:32.229Z,2.50
2018-12-23T05:57:06.899Z,2.50
2018-12-23T05:57:41.339Z,2.50
2018-12-23T05:58:16.004Z,2.40
2018-12-23T05:58:50.562Z,2.50
2018-12-23T05:59:25.232Z,2.40
2018-12-23T06:00:00.316Z,2.40
2018-12-23T06:00:35.086Z,2.40
2018-12-23T06:01:09.980Z,2.40
2018-12-23T06:01:44.640Z,2.50
2018-12-23T06:02:19.364Z,2.50
2018-12-23T06:02:53.845Z,2.40
2018-12-23T06:03:28.734Z,2.40
2018-12-23T06:04:03.303Z,2.50
2018-12-23T06:04:37.927Z,2.50
2018-12-23T06:05:12.647Z,2.40
2018-12-23T06:05:47.217Z,2.50
2018-12-23T06:06:21.964Z,2.50
2018-12-23T06:07:00.943Z,2.50
2018-12-23T06:07:33.078Z,2.50
2018-12-23T06:08:07.799Z,2.50
2018-12-23T06:08:42.619Z,2.50
2018-12-23T06:09:17.833Z,2.50
2018-12-23T06:09:52.471Z,2.50
2018-12-23T06:10:27.090Z,2.50
2018-12-23T06:11:01.740Z,2.50
2018-12-23T06:11:36.428Z,2.50
2018-12-23T06:12:11.041Z,2.50
2018-12-23T06:12:45.689Z,2.50
2018-12-23T06:13:20.338Z,2.50
2018-12-23T06:13:54.899Z,2.50
2018-12-23T06:14:29.524Z,2.50
2018-12-23T06:15:04.127Z,2.50
2018-12-23T06:15:38.729Z,2.50
2018-12-23T06:16:13.304Z,2.50
2018-12-23T06:16:47.995Z,2.50
2018-12-23T06:17:22.605Z,2.50
2018-12-23T06:17:57.214Z,2.50
2018-12-23T06:18:32.215Z,2.50
2018-12-23T06:19:06.746Z,2.50
2018-12-23T06:19:41.395Z,2.50
2018-12-23T06:20:16.090Z,2.40
2018-12-23T06:20:50.885Z,2.40
2018-12-23T06:21:25.592Z,2.50
2018-12-23T06:22:00.635Z,2.50
2018-12-23T06:22:35.315Z,2.50
2018-12-23T06:23:09.964Z,2.50
2018-12-23T06:23:44.606Z,2.50
2018-12-23T06:24:19.281Z,2.50
2018-12-23T06:24:53.985Z,2.40
2018-12-23T06:25:28.515Z,2.50
2018-12-23T06:26:03.156Z,2.50
2018-12-23T06:26:38.027Z,2.50
2018-12-23T06:27:12.654Z,2.40
2018-12-23T06:27:47.346Z,2.40
2018-12-23T06:28:21.926Z,2.40
2018-12-23T06:28:56.467Z,2.50
2018-12-23T06:29:30.996Z,2.50
2018-12-23T06:30:06.196Z,2.50
2018-12-23T06:30:40.849Z,2.40
2018-12-23T06:31:15.489Z,2.40
2018-12-23T06:31:50.035Z,2.40
2018-12-23T06:32:24.696Z,2.40
2018-12-23T06:32:59.351Z,2.50
2018-12-23T06:33:34.361Z,2.50
2018-12-23T06:34:09.372Z,2.50
2018-12-23T06:34:44.172Z,2.50
2018-12-23T06:35:18.825Z,2.50
2018-12-23T06:35:59.754Z,2.50
2018-12-23T06:36:34.222Z,2.50
2018-12-23T06:37:10.279Z,2.50
2018-12-23T06:37:45.269Z,2.50
2018-12-23T06:38:19.890Z,2.50
2018-12-23T06:38:54.649Z,2.50
2018-12-23T06:39:29.315Z,2.40
2018-12-23T06:40:04.479Z,2.50
2018-12-23T06:40:38.929Z,2.50
2018-12-23T06:41:13.508Z,2.50
2018-12-23T06:41:48.168Z,2.50
2018-12-23T06:42:22.659Z,2.50
2018-12-23T06:42:57.339Z,2.40
2018-12-23T06:43:31.968Z,2.50
2018-12-23T06:44:06.525Z,2.50
2018-12-23T06:44:41.215Z,2.50
2018-12-23T06:45:15.821Z,2.50
2018-12-23T06:45:50.410Z,2.50
2018-12-23T06:46:25.001Z,2.50
2018-12-23T06:46:59.664Z,2.50
2018-12-23T06:47:34.301Z,2.50
2018-12-23T06:48:08.954Z,2.50
2018-12-23T06:48:43.581Z,2.50
2018-12-23T06:49:18.124Z,2.50
2018-12-23T06:49:52.751Z,2.50
2018-12-23T06:50:28.006Z,2.50
2018-12-23T06:51:02.510Z,2.50
2018-12-23T06:51:37.231Z,2.50
2018-12-23T06:52:11.684Z,2.50
2018-12-23T06:52:46.519Z,2.50
2018-12-23T06:53:21.244Z,2.50
2018-12-23T06:53:55.891Z,2.50
2018-12-23T06:54:30.296Z,2.50
2018-12-23T06:55:05.081Z,2.50
2018-12-23T06:55:39.653Z,2.50
2018-12-23T06:56:15.386Z,2.50
2018-12-23T06:56:49.943Z,2.50
2018-12-23T06:57:24.425Z,2.50
2018-12-23T06:57:58.962Z,2.50
2018-12-23T06:58:33.556Z,2.50
2018-12-23T06:59:08.135Z,2.50
2018-12-23T06:59:42.993Z,2.50
2018-12-23T07:00:17.584Z,2.50
2018-12-23T07:00:52.555Z,2.50
2018-12-23T07:01:27.189Z,2.50
2018-12-23T07:02:01.829Z,2.50
2018-12-23T07:02:36.438Z,2.50
2018-12-23T07:03:11.130Z,2.60
2018-12-23T07:03:45.824Z,2.50
2018-12-23T07:04:20.535Z,2.60
2018-12-23T07:04:55.224Z,2.50
2018-12-23T07:05:29.854Z,2.50
2018-12-23T07:06:04.490Z,2.60
2018-12-23T07:06:39.343Z,2.60
2018-12-23T07:07:18.617Z,2.50
2018-12-23T07:07:51.198Z,2.60
2018-12-23T07:08:26.071Z,2.50
2018-12-23T07:09:00.904Z,2.60
2018-12-23T07:09:35.431Z,2.60
2018-12-23T07:10:10.128Z,2.60
2018-12-23T07:10:44.583Z,2.50
2018-12-23T07:11:19.200Z,2.60
2018-12-23T07:11:53.832Z,2.60
2018-12-23T07:12:28.307Z,2.60
2018-12-23T07:13:02.756Z,2.60
2018-12-23T07:13:37.291Z,2.60
2018-12-23T07:14:11.878Z,2.60
2018-12-23T07:14:46.474Z,2.60
2018-12-23T07:15:21.045Z,2.60
2018-12-23T07:15:55.572Z,2.60
2018-12-23T07:16:30.282Z,2.60
2018-12-23T07:17:05.192Z,2.60
2018-12-23T07:17:39.760Z,2.60
2018-12-23T07:18:14.389Z,2.60
2018-12-23T07:18:48.796Z,2.60
2018-12-23T07:19:23.512Z,2.60
2018-12-23T07:19:58.384Z,2.60
2018-12-23T07:20:33.084Z,2.60
2018-12-23T07:21:07.724Z,2.60
2018-12-23T07:21:42.612Z,2.60
2018-12-23T07:22:17.271Z,2.60
2018-12-23T07:22:51.902Z,2.60
2018-12-23T07:23:33.058Z,2.60
2018-12-23T07:24:07.854Z,2.60
2018-12-23T07:24:42.794Z,2.60
2018-12-23T07:25:17.427Z,2.60
2018-12-23T07:25:52.097Z,2.60
2018-12-23T07:26:26.646Z,2.70
2018-12-23T07:27:01.156Z,2.60
2018-12-23T07:27:35.806Z,2.70
2018-12-23T07:28:10.291Z,2.70
2018-12-23T07:28:44.961Z,2.70
2018-12-23T07:29:19.594Z,2.70
2018-12-23T07:29:54.275Z,2.70
2018-12-23T07:30:28.957Z,2.70
2018-12-23T07:31:03.463Z,2.70
2018-12-23T07:31:38.098Z,2.70
2018-12-23T07:32:12.670Z,2.70
2018-12-23T07:32:47.285Z,2.70
2018-12-23T07:33:21.865Z,2.70
2018-12-23T07:33:56.317Z,2.70
2018-12-23T07:34:30.858Z,2.80
2018-12-23T07:35:05.610Z,2.70
2018-12-23T07:35:40.287Z,2.70
2018-12-23T07:36:14.919Z,2.80
2018-12-23T07:36:49.967Z,2.70
2018-12-23T07:37:27.733Z,2.70
2018-12-23T07:38:01.249Z,2.70
2018-12-23T07:38:36.012Z,2.70
2018-12-23T07:39:10.711Z,2.70
2018-12-23T07:39:45.443Z,2.70
2018-12-23T07:40:19.967Z,2.70
2018-12-23T07:40:54.734Z,2.70
2018-12-23T07:41:29.288Z,2.70
2018-12-23T07:42:03.729Z,2.70
2018-12-23T07:42:38.520Z,2.70
2018-12-23T07:43:13.137Z,2.70
2018-12-23T07:43:47.937Z,2.70
2018-12-23T07:44:22.884Z,2.70
2018-12-23T07:44:57.469Z,2.80